Harveys Lake, Pennsylvania
Current Conditions -  °F | °C
As of 4:54 AM on Sunday 26 Oct 2014 (Local Time) from KAVP Reporting Station
Broken Clouds Broken Clouds  
Wind Chill: 53°   Ceiling: 7000
Heat Index: 53°   Visibility: 10mi
Dew Point: 36°   Wind: 10mph
Humidity: 52%   Direction: 320°NW
Pressure: 29.64"   Gusts: 21mph
Location:  41.38°N, 76.02°W
Report Text: KAVP 260854Z 32009G18KT 10SM BKN070 12/02 A2964 RMK AO2 SLP034 T01170022 51019
Loading
Personal Weather Stations






























Interactive Weather Map
Tropical Storm Tracking
New forecast layout! Learn more

10-Day Weather Forecast

Advertisements
Track Severe Weather on mobile